createdAt,value
2023-02-27T00:00:27.075Z,3.63
2023-02-27T00:00:58.965Z,3.15
2023-02-27T00:01:30.775Z,2.97
2023-02-27T00:02:02.250Z,3.35
2023-02-27T00:02:33.597Z,2.92
2023-02-27T00:03:04.927Z,3.80
2023-02-27T00:03:36.316Z,3.97
2023-02-27T00:04:07.784Z,3.40
2023-02-27T00:04:39.145Z,3.80
2023-02-27T00:05:11.345Z,3.30
2023-02-27T00:05:42.686Z,2.72
2023-02-27T00:06:13.995Z,4.03
2023-02-27T00:06:45.307Z,2.92
2023-02-27T00:07:16.930Z,2.08
2023-02-27T00:07:48.258Z,3.42
2023-02-27T00:08:19.600Z,2.97
2023-02-27T00:08:50.971Z,2.60
2023-02-27T00:09:22.359Z,2.67
2023-02-27T00:09:53.710Z,3.58
2023-02-27T00:10:25.092Z,2.85
2023-02-27T00:10:56.429Z,3.88
2023-02-27T00:11:28.113Z,3.58
2023-02-27T00:11:59.765Z,2.40
2023-02-27T00:12:31.511Z,3.53
2023-02-27T00:13:02.914Z,1.98
2023-02-27T00:13:34.954Z,2.90
2023-02-27T00:14:06.300Z,4.03
2023-02-27T00:14:37.719Z,3.55
2023-02-27T00:15:16.436Z,4.68
2023-02-27T00:15:48.665Z,4.25
2023-02-27T00:16:20.094Z,3.50
2023-02-27T00:16:51.504Z,3.72
2023-02-27T00:17:22.912Z,4.50
2023-02-27T00:17:54.275Z,3.00
2023-02-27T00:18:25.630Z,2.35
2023-02-27T00:18:56.990Z,1.73
2023-02-27T00:19:28.342Z,1.70
2023-02-27T00:19:59.923Z,2.38
2023-02-27T00:20:31.244Z,3.15
2023-02-27T00:21:02.656Z,2.40
2023-02-27T00:21:36.661Z,2.75
2023-02-27T00:22:08.137Z,2.95
2023-02-27T00:22:40.173Z,3.22
2023-02-27T00:23:11.489Z,2.80
2023-02-27T00:23:42.811Z,3.35
2023-02-27T00:24:14.218Z,3.53
2023-02-27T00:24:45.797Z,2.75
2023-02-27T00:25:17.799Z,3.92
2023-02-27T00:25:49.145Z,3.22
2023-02-27T00:26:20.484Z,3.30
2023-02-27T00:26:51.823Z,2.22
2023-02-27T00:27:23.263Z,3.47
2023-02-27T00:27:54.611Z,4.70
2023-02-27T00:28:25.937Z,4.63
2023-02-27T00:28:57.455Z,2.38
2023-02-27T00:29:28.784Z,3.15
2023-02-27T00:30:00.593Z,3.40
2023-02-27T00:30:31.995Z,4.70
2023-02-27T00:31:03.472Z,3.20
2023-02-27T00:31:35.143Z,4.88
2023-02-27T00:32:06.581Z,2.85
2023-02-27T00:32:38.270Z,1.63
2023-02-27T00:33:09.610Z,2.88
2023-02-27T00:33:40.954Z,4.30
2023-02-27T00:34:12.289Z,3.25
2023-02-27T00:34:43.618Z,5.95
2023-02-27T00:35:14.978Z,3.13
2023-02-27T00:35:54.255Z,4.18
2023-02-27T00:36:25.617Z,3.17
2023-02-27T00:36:56.974Z,3.28
2023-02-27T00:37:28.306Z,5.20
2023-02-27T00:37:59.646Z,4.55
2023-02-27T00:38:31.169Z,3.80
2023-02-27T00:39:02.839Z,3.83
2023-02-27T00:39:34.229Z,3.78
2023-02-27T00:40:06.157Z,3.15
2023-02-27T00:40:37.695Z,3.08
2023-02-27T00:41:09.133Z,3.97
2023-02-27T00:41:40.466Z,4.30
2023-02-27T00:42:11.879Z,3.28
2023-02-27T00:42:43.204Z,3.58
2023-02-27T00:43:14.539Z,5.47
2023-02-27T00:43:45.878Z,4.47
2023-02-27T00:44:17.274Z,7.15
2023-02-27T00:44:48.649Z,2.63
2023-02-27T00:45:20.180Z,3.00
2023-02-27T00:45:51.515Z,2.33
2023-02-27T00:46:23.041Z,4.40
2023-02-27T00:46:54.415Z,2.40
2023-02-27T00:47:25.855Z,2.53
2023-02-27T00:47:57.166Z,3.80
2023-02-27T00:48:28.653Z,2.15
2023-02-27T00:48:59.980Z,2.90
2023-02-27T00:49:31.308Z,3.42
2023-02-27T00:50:02.921Z,2.30
2023-02-27T00:50:34.260Z,2.00
2023-02-27T00:51:05.737Z,3.00
2023-02-27T00:51:37.086Z,5.35
2023-02-27T00:52:08.443Z,1.92
2023-02-27T00:52:40.204Z,2.45
2023-02-27T00:53:11.537Z,3.38
2023-02-27T00:53:42.870Z,2.53
2023-02-27T00:54:14.199Z,1.75
2023-02-27T00:54:45.504Z,1.60
2023-02-27T00:55:16.943Z,2.75
2023-02-27T00:55:48.994Z,3.08
2023-02-27T00:56:20.318Z,2.70
2023-02-27T00:56:51.633Z,2.15
2023-02-27T00:57:23.001Z,2.72
2023-02-27T00:57:54.438Z,2.17
2023-02-27T00:58:25.771Z,2.35
2023-02-27T00:58:57.077Z,2.45
2023-02-27T00:59:28.377Z,2.17
2023-02-27T00:59:59.729Z,2.45
2023-02-27T01:00:31.145Z,3.53
2023-02-27T01:01:02.529Z,4.80
2023-02-27T01:01:33.892Z,1.98
2023-02-27T01:02:05.317Z,2.33
2023-02-27T01:02:36.739Z,2.53
2023-02-27T01:03:08.134Z,2.75
2023-02-27T01:03:39.459Z,2.50
2023-02-27T01:04:10.818Z,3.85
2023-02-27T01:04:42.212Z,3.60
2023-02-27T01:05:14.124Z,3.28
2023-02-27T01:05:45.461Z,2.80
2023-02-27T01:06:16.845Z,2.65
2023-02-27T01:06:48.212Z,3.03
2023-02-27T01:07:19.592Z,3.42
2023-02-27T01:07:51.017Z,2.67
2023-02-27T01:08:22.442Z,2.93
2023-02-27T01:08:53.791Z,4.65
2023-02-27T01:09:25.152Z,2.50
2023-02-27T01:09:56.485Z,2.55
2023-02-27T01:10:27.834Z,3.67
2023-02-27T01:10:59.313Z,2.63
2023-02-27T01:11:30.675Z,2.75
2023-02-27T01:12:02.153Z,1.73
2023-02-27T01:12:33.521Z,4.47
2023-02-27T01:13:04.849Z,3.05
2023-02-27T01:13:36.180Z,2.00
2023-02-27T01:14:07.511Z,3.50
2023-02-27T01:14:38.848Z,2.42
2023-02-27T01:15:10.839Z,2.40
2023-02-27T01:15:42.117Z,2.40
2023-02-27T01:16:13.769Z,2.80
2023-02-27T01:16:45.376Z,3.20
2023-02-27T01:17:16.800Z,2.72
2023-02-27T01:17:48.158Z,2.33
2023-02-27T01:18:19.568Z,2.72
2023-02-27T01:18:50.935Z,2.45
2023-02-27T01:19:22.591Z,3.38
2023-02-27T01:19:53.901Z,2.10
2023-02-27T01:20:25.285Z,1.55
2023-02-27T01:20:56.621Z,1.42
2023-02-27T01:21:28.271Z,2.80
2023-02-27T01:21:59.787Z,3.50
2023-02-27T01:22:31.156Z,2.28
2023-02-27T01:23:02.660Z,3.83
2023-02-27T01:23:34.055Z,4.00
2023-02-27T01:24:05.508Z,3.85
2023-02-27T01:24:36.952Z,2.80
2023-02-27T01:25:08.747Z,3.47
2023-02-27T01:25:40.082Z,4.30
2023-02-27T01:26:11.426Z,3.38
2023-02-27T01:26:42.749Z,2.38
2023-02-27T01:27:14.128Z,3.78
2023-02-27T01:27:45.437Z,3.53
2023-02-27T01:28:16.796Z,3.17
2023-02-27T01:28:48.147Z,3.17
2023-02-27T01:29:19.807Z,3.72
2023-02-27T01:29:51.134Z,3.00
2023-02-27T01:30:22.492Z,3.28
2023-02-27T01:30:53.961Z,3.80
2023-02-27T01:31:25.674Z,3.88
2023-02-27T01:31:57.216Z,3.15
2023-02-27T01:32:28.727Z,3.37
2023-02-27T01:33:00.156Z,3.92
2023-02-27T01:33:31.499Z,3.03
2023-02-27T01:34:02.872Z,4.38
2023-02-27T01:34:34.444Z,3.25
2023-02-27T01:35:06.099Z,4.03
2023-02-27T01:35:37.508Z,3.10
2023-02-27T01:36:09.104Z,3.42
2023-02-27T01:36:40.432Z,3.70
2023-02-27T01:37:11.924Z,2.53
2023-02-27T01:37:43.293Z,2.72
2023-02-27T01:38:14.626Z,3.17
2023-02-27T01:38:46.133Z,2.67
2023-02-27T01:39:17.460Z,3.15
2023-02-27T01:39:48.785Z,4.13
2023-02-27T01:40:20.298Z,2.78
2023-02-27T01:40:51.622Z,3.80
2023-02-27T01:41:23.038Z,3.97
2023-02-27T01:41:54.460Z,4.47
2023-02-27T01:42:26.966Z,5.03
2023-02-27T01:42:58.285Z,2.40
2023-02-27T01:43:29.766Z,3.33
2023-02-27T01:44:03.145Z,4.65
2023-02-27T01:44:54.424Z,3.85
2023-02-27T01:45:30.463Z,3.15
2023-02-27T01:46:01.885Z,3.42
2023-02-27T01:46:33.844Z,3.23
2023-02-27T01:47:05.440Z,3.45
2023-02-27T01:47:38.632Z,3.30
2023-02-27T01:48:16.160Z,2.92
2023-02-27T01:48:47.524Z,2.33
2023-02-27T01:49:20.420Z,2.55
2023-02-27T01:49:51.775Z,4.53
2023-02-27T01:50:23.671Z,3.88
2023-02-27T01:50:58.171Z,3.83
2023-02-27T01:51:34.504Z,2.90
2023-02-27T01:52:07.429Z,3.67
2023-02-27T01:52:40.201Z,3.00
2023-02-27T01:53:11.541Z,2.63
2023-02-27T01:53:43.906Z,4.28
2023-02-27T01:54:17.576Z,3.40
2023-02-27T01:54:48.943Z,2.97
2023-02-27T01:55:21.172Z,4.10
2023-02-27T01:55:58.198Z,4.43
2023-02-27T01:56:30.803Z,2.83
2023-02-27T01:57:02.362Z,2.97
2023-02-27T01:57:33.814Z,4.47
2023-02-27T01:58:07.418Z,5.20
2023-02-27T01:58:38.885Z,3.88
2023-02-27T01:59:10.867Z,4.03
2023-02-27T01:59:42.570Z,4.05
2023-02-27T02:00:14.429Z,3.45
2023-02-27T02:00:46.236Z,4.80
2023-02-27T02:01:18.622Z,5.55
2023-02-27T02:01:50.521Z,3.40
2023-02-27T02:02:24.926Z,3.65
2023-02-27T02:03:16.550Z,2.63
2023-02-27T02:03:50.574Z,3.90
2023-02-27T02:04:25.862Z,2.90
2023-02-27T02:04:57.418Z,3.83
2023-02-27T02:05:29.298Z,2.88
2023-02-27T02:06:01.720Z,3.10
2023-02-27T02:06:35.256Z,4.47
2023-02-27T02:07:08.320Z,3.95
2023-02-27T02:07:40.508Z,4.85
2023-02-27T02:08:13.920Z,4.88
2023-02-27T02:08:46.475Z,2.80
2023-02-27T02:09:21.442Z,4.60
2023-02-27T02:09:58.436Z,4.25
2023-02-27T02:10:30.278Z,4.10
2023-02-27T02:11:02.034Z,4.90
2023-02-27T02:11:33.408Z,5.40
2023-02-27T02:12:04.854Z,5.65
2023-02-27T02:12:38.078Z,5.28
2023-02-27T02:13:09.736Z,3.53
2023-02-27T02:13:41.725Z,3.63
2023-02-27T02:14:13.113Z,5.35
2023-02-27T02:14:44.663Z,5.10
2023-02-27T02:15:16.083Z,4.03
2023-02-27T02:16:15.980Z,5.07
2023-02-27T02:16:56.470Z,5.03
2023-02-27T02:17:46.058Z,3.37
2023-02-27T02:18:36.153Z,4.50
2023-02-27T02:19:26.081Z,3.60
2023-02-27T02:20:14.512Z,3.90
2023-02-27T02:21:04.077Z,4.13
2023-02-27T02:21:38.237Z,3.85
2023-02-27T02:22:18.686Z,2.58
2023-02-27T02:22:50.004Z,3.08
2023-02-27T02:23:21.432Z,3.97
2023-02-27T02:23:52.765Z,6.77
2023-02-27T02:24:24.071Z,4.72
2023-02-27T02:24:58.163Z,3.78
2023-02-27T02:25:38.731Z,4.63
2023-02-27T02:26:24.792Z,4.18
2023-02-27T02:27:05.131Z,4.78
2023-02-27T02:27:39.516Z,3.72
2023-02-27T02:28:10.820Z,6.63
2023-02-27T02:29:00.731Z,5.30
2023-02-27T02:29:47.133Z,4.10
2023-02-27T02:30:21.441Z,3.75
2023-02-27T02:30:55.588Z,5.10
2023-02-27T02:31:42.116Z,4.47
2023-02-27T02:32:32.171Z,6.53
2023-02-27T02:33:12.660Z,4.10
2023-02-27T02:33:56.391Z,4.22
2023-02-27T02:34:42.996Z,5.43
2023-02-27T02:35:17.124Z,5.57
2023-02-27T02:35:48.448Z,7.65
2023-02-27T02:36:40.234Z,5.93
2023-02-27T02:37:27.247Z,4.70
2023-02-27T02:38:06.566Z,4.95
2023-02-27T02:38:56.787Z,4.63
2023-02-27T02:39:28.108Z,5.40
2023-02-27T02:40:12.493Z,6.30
2023-02-27T02:40:46.545Z,5.38
2023-02-27T02:41:23.131Z,6.00
2023-02-27T02:42:00.463Z,6.05
2023-02-27T02:42:31.770Z,5.30
2023-02-27T02:43:12.358Z,5.82
2023-02-27T02:43:50.523Z,5.45
2023-02-27T02:44:40.603Z,4.47
2023-02-27T02:45:17.023Z,4.25
2023-02-27T02:45:51.975Z,5.00
2023-02-27T02:46:29.475Z,4.30
2023-02-27T02:47:03.583Z,4.88
2023-02-27T02:47:34.915Z,4.63
2023-02-27T02:48:15.685Z,4.50
2023-02-27T02:48:55.857Z,5.05
2023-02-27T02:49:33.672Z,5.03
2023-02-27T02:50:13.493Z,5.28
2023-02-27T02:50:49.472Z,2.65
2023-02-27T02:51:29.474Z,3.75
2023-02-27T02:52:17.946Z,4.53
2023-02-27T02:52:49.250Z,4.55
2023-02-27T02:53:36.126Z,4.63
2023-02-27T02:54:14.426Z,4.53
2023-02-27T02:54:52.530Z,5.03
2023-02-27T02:55:33.351Z,4.22
2023-02-27T02:56:13.083Z,3.28
2023-02-27T02:56:48.638Z,4.28
2023-02-27T02:57:23.758Z,3.45
2023-02-27T02:57:58.072Z,4.38
2023-02-27T02:58:35.909Z,3.33
2023-02-27T02:59:07.271Z,4.07
2023-02-27T02:59:54.675Z,5.80
2023-02-27T03:00:30.060Z,6.95
2023-02-27T03:01:01.367Z,3.72
2023-02-27T03:02:02.106Z,4.88
2023-02-27T03:02:37.081Z,2.95
2023-02-27T03:03:12.502Z,5.25
2023-02-27T03:03:45.764Z,4.07
2023-02-27T03:04:17.108Z,3.95
2023-02-27T03:04:51.350Z,3.00
2023-02-27T03:05:26.206Z,3.55
2023-02-27T03:06:03.635Z,5.13
2023-02-27T03:06:37.680Z,2.88
2023-02-27T03:07:08.989Z,4.90
2023-02-27T03:07:47.591Z,4.10
2023-02-27T03:08:21.022Z,3.65
2023-02-27T03:08:55.344Z,4.97
2023-02-27T03:09:42.541Z,4.25
2023-02-27T03:10:16.315Z,4.18
2023-02-27T03:10:53.899Z,4.65
2023-02-27T03:11:27.927Z,5.55
2023-02-27T03:12:00.947Z,4.75
2023-02-27T03:12:33.569Z,4.07
2023-02-27T03:13:12.142Z,4.47
2023-02-27T03:13:48.480Z,4.53
2023-02-27T03:14:27.737Z,4.47
2023-02-27T03:14:59.051Z,4.00
2023-02-27T03:15:34.713Z,4.20
2023-02-27T03:16:06.140Z,3.83
2023-02-27T03:16:40.373Z,4.22
2023-02-27T03:17:16.702Z,4.28
2023-02-27T03:17:48.017Z,3.63
2023-02-27T03:18:22.809Z,5.30
2023-02-27T03:18:56.713Z,7.53
2023-02-27T03:19:30.931Z,4.35
2023-02-27T03:20:04.729Z,4.35
2023-02-27T03:20:39.307Z,4.07
2023-02-27T03:21:13.386Z,3.45
2023-02-27T03:21:58.900Z,3.80
2023-02-27T03:22:32.315Z,4.43
2023-02-27T03:23:09.177Z,3.75
2023-02-27T03:23:42.514Z,4.53
2023-02-27T03:24:16.901Z,1.73
2023-02-27T03:24:51.352Z,4.78
2023-02-27T03:25:24.889Z,3.47
2023-02-27T03:25:58.280Z,4.22
2023-02-27T03:26:33.606Z,3.72
2023-02-27T03:27:05.549Z,4.32
2023-02-27T03:27:40.460Z,5.60
2023-02-27T03:28:15.265Z,3.50
2023-02-27T03:28:54.278Z,4.50
2023-02-27T03:29:51.983Z,6.13
2023-02-27T03:30:30.946Z,4.65
2023-02-27T03:31:34.713Z,2.22
2023-02-27T03:32:14.742Z,5.75
2023-02-27T03:32:58.412Z,4.20
2023-02-27T03:33:50.706Z,4.32
2023-02-27T03:34:27.634Z,3.75
2023-02-27T03:35:00.016Z,4.25
2023-02-27T03:35:37.200Z,5.00
2023-02-27T03:36:34.689Z,3.22
2023-02-27T03:37:12.012Z,4.18
2023-02-27T03:38:01.258Z,5.43
2023-02-27T03:38:47.722Z,3.97
2023-02-27T03:39:30.229Z,2.83
2023-02-27T03:40:01.573Z,5.47
2023-02-27T03:40:59.012Z,3.88
2023-02-27T03:41:42.488Z,2.88
2023-02-27T03:42:23.098Z,4.03
2023-02-27T03:43:02.298Z,4.32
2023-02-27T03:43:53.869Z,4.57
2023-02-27T03:44:28.305Z,3.33
2023-02-27T03:45:05.775Z,3.47
2023-02-27T03:45:40.248Z,4.97
2023-02-27T03:46:17.029Z,5.28
2023-02-27T03:46:48.425Z,4.15
2023-02-27T03:47:20.028Z,5.10
2023-02-27T03:47:51.483Z,3.95
2023-02-27T03:48:22.944Z,4.45
2023-02-27T03:48:54.276Z,5.68
2023-02-27T03:49:25.695Z,4.25
2023-02-27T03:49:57.215Z,4.65
2023-02-27T03:50:28.612Z,5.15
2023-02-27T03:51:00.020Z,4.53
2023-02-27T03:51:31.894Z,4.60
2023-02-27T03:52:03.287Z,3.70
2023-02-27T03:52:34.674Z,4.05
2023-02-27T03:53:10.647Z,4.43
2023-02-27T03:53:54.576Z,4.70
2023-02-27T03:54:27.631Z,5.70
2023-02-27T03:55:05.117Z,4.88
2023-02-27T03:55:39.037Z,4.10
2023-02-27T03:56:12.211Z,5.47
2023-02-27T03:56:58.996Z,4.05
2023-02-27T03:57:30.712Z,6.00
2023-02-27T03:58:02.197Z,4.83
2023-02-27T03:58:33.794Z,5.38
2023-02-27T03:59:05.418Z,5.88
2023-02-27T03:59:37.595Z,4.27
2023-02-27T04:00:11.057Z,4.88
2023-02-27T04:00:42.605Z,5.25
2023-02-27T04:01:14.369Z,4.38
2023-02-27T04:01:45.920Z,4.30
2023-02-27T04:02:17.340Z,3.88
2023-02-27T04:02:49.955Z,5.72
2023-02-27T04:03:21.393Z,4.32
2023-02-27T04:04:02.539Z,6.13
2023-02-27T04:04:33.941Z,4.65
2023-02-27T04:05:05.427Z,5.13
2023-02-27T04:05:36.854Z,4.43
2023-02-27T04:06:08.248Z,4.00
2023-02-27T04:06:40.163Z,5.85
2023-02-27T04:07:17.532Z,4.40
2023-02-27T04:08:07.798Z,4.22
2023-02-27T04:08:55.871Z,3.85
2023-02-27T04:10:02.499Z,6.03
2023-02-27T04:10:45.719Z,4.25
2023-02-27T04:11:24.959Z,4.85
2023-02-27T04:12:21.624Z,4.50
2023-02-27T04:13:01.475Z,4.27
2023-02-27T04:13:32.804Z,4.13
2023-02-27T04:14:12.319Z,4.00
2023-02-27T04:14:54.425Z,4.07
2023-02-27T04:15:25.792Z,5.13
2023-02-27T04:16:15.957Z,4.07
2023-02-27T04:16:56.654Z,3.95
2023-02-27T04:17:29.580Z,3.90
2023-02-27T04:18:29.574Z,4.72
2023-02-27T04:19:12.676Z,4.07
2023-02-27T04:19:52.322Z,4.32
2023-02-27T04:20:29.885Z,4.40
2023-02-27T04:21:06.878Z,3.97
2023-02-27T04:21:41.875Z,5.47
2023-02-27T04:22:34.212Z,5.57
2023-02-27T04:23:09.883Z,3.70
2023-02-27T04:23:54.880Z,3.92
2023-02-27T04:24:29.292Z,3.90
2023-02-27T04:25:19.418Z,4.95
2023-02-27T04:25:50.738Z,5.82
2023-02-27T04:26:29.342Z,3.10
2023-02-27T04:27:29.809Z,5.15
2023-02-27T04:28:18.279Z,6.38
2023-02-27T04:29:02.357Z,4.30
2023-02-27T04:29:51.304Z,5.30
2023-02-27T04:30:22.718Z,4.43
2023-02-27T04:30:57.840Z,5.35
2023-02-27T04:31:41.821Z,3.75
2023-02-27T04:32:17.541Z,3.78
2023-02-27T04:33:04.354Z,4.30
2023-02-27T04:33:35.660Z,4.50
2023-02-27T04:34:13.741Z,5.07
2023-02-27T04:34:50.878Z,3.95
2023-02-27T04:35:25.248Z,5.95
2023-02-27T04:35:58.488Z,4.85
2023-02-27T04:36:35.260Z,4.10
2023-02-27T04:37:20.939Z,5.60
2023-02-27T04:37:58.449Z,5.40
2023-02-27T04:38:33.641Z,4.88
2023-02-27T04:39:06.526Z,5.20
2023-02-27T04:39:51.553Z,5.68
2023-02-27T04:40:30.169Z,7.43
2023-02-27T04:41:06.042Z,6.18
2023-02-27T04:41:56.086Z,5.07
2023-02-27T04:42:30.634Z,4.57
2023-02-27T04:43:03.364Z,4.97
2023-02-27T04:43:35.760Z,5.32
2023-02-27T04:44:08.349Z,4.53
2023-02-27T04:44:40.224Z,5.93
2023-02-27T04:45:15.274Z,5.32
2023-02-27T04:45:47.822Z,5.75
2023-02-27T04:46:21.290Z,5.40
2023-02-27T04:46:54.104Z,5.38
2023-02-27T04:47:28.025Z,5.82
2023-02-27T04:48:01.697Z,5.72
2023-02-27T04:48:36.854Z,5.65
2023-02-27T04:49:17.834Z,6.13
2023-02-27T04:49:54.274Z,5.47
2023-02-27T04:50:31.413Z,5.20
2023-02-27T04:51:02.731Z,7.33
2023-02-27T04:52:00.478Z,6.82
2023-02-27T04:52:34.261Z,4.88
2023-02-27T04:53:08.594Z,4.93
2023-02-27T04:53:47.618Z,7.07
2023-02-27T04:54:22.824Z,5.50
2023-02-27T04:54:56.429Z,6.43
2023-02-27T04:55:30.208Z,5.13
2023-02-27T04:56:04.128Z,7.45
2023-02-27T04:56:37.514Z,5.95
2023-02-27T04:57:10.783Z,5.35
2023-02-27T04:57:54.029Z,5.53
2023-02-27T04:58:42.891Z,5.53
2023-02-27T04:59:19.090Z,6.07
2023-02-27T04:59:52.360Z,6.18
2023-02-27T05:00:24.730Z,6.28
2023-02-27T05:01:05.491Z,6.30
2023-02-27T05:01:49.170Z,6.25
2023-02-27T05:02:26.725Z,5.38
2023-02-27T05:03:11.218Z,5.63
2023-02-27T05:03:46.110Z,7.65
2023-02-27T05:04:19.812Z,6.35
2023-02-27T05:04:53.980Z,6.68
2023-02-27T05:05:26.628Z,7.97
2023-02-27T05:05:59.156Z,8.68
2023-02-27T05:06:32.396Z,6.18
2023-02-27T05:07:05.581Z,6.32
2023-02-27T05:07:39.895Z,8.57
2023-02-27T05:08:21.815Z,7.50
2023-02-27T05:08:58.908Z,6.85
2023-02-27T05:09:33.405Z,7.75
2023-02-27T05:10:10.142Z,8.15
2023-02-27T05:10:50.811Z,7.93
2023-02-27T05:11:31.295Z,7.72
2023-02-27T05:12:05.620Z,7.53
2023-02-27T05:12:43.483Z,7.78
2023-02-27T05:13:14.808Z,7.63
2023-02-27T05:13:50.912Z,8.23
2023-02-27T05:14:28.334Z,7.20
2023-02-27T05:15:03.119Z,7.85
2023-02-27T05:15:40.702Z,8.60
2023-02-27T05:16:12.096Z,9.27
2023-02-27T05:16:46.619Z,7.50
2023-02-27T05:17:19.612Z,8.77
2023-02-27T05:18:02.141Z,8.73
2023-02-27T05:18:33.584Z,9.65
2023-02-27T05:19:05.560Z,8.55
2023-02-27T05:19:38.684Z,9.05
2023-02-27T05:20:10.857Z,10.63
2023-02-27T05:20:48.422Z,8.60
2023-02-27T05:21:19.729Z,8.75
2023-02-27T05:21:56.132Z,7.72
2023-02-27T05:22:30.476Z,8.83
2023-02-27T05:23:08.053Z,7.72
2023-02-27T05:23:48.602Z,8.10
2023-02-27T05:24:23.990Z,7.63
2023-02-27T05:25:13.890Z,7.88
2023-02-27T05:26:20.630Z,9.32
2023-02-27T05:26:51.974Z,9.57
2023-02-27T05:27:32.288Z,8.40
2023-02-27T05:28:13.569Z,8.25
2023-02-27T05:28:54.063Z,9.10
2023-02-27T05:29:28.243Z,8.15
2023-02-27T05:30:01.866Z,9.85
2023-02-27T05:30:48.556Z,8.03
2023-02-27T05:31:41.626Z,10.75
2023-02-27T05:32:18.021Z,9.43
2023-02-27T05:32:53.401Z,9.63
2023-02-27T05:33:28.578Z,9.15
2023-02-27T05:34:02.793Z,8.10
2023-02-27T05:34:37.699Z,7.25
2023-02-27T05:35:13.401Z,10.50
2023-02-27T05:35:51.097Z,11.02
2023-02-27T05:36:34.544Z,9.85
2023-02-27T05:37:16.649Z,8.93
2023-02-27T05:37:53.039Z,9.35
2023-02-27T05:38:36.398Z,10.25
2023-02-27T05:39:09.379Z,11.90
2023-02-27T05:39:41.719Z,12.05
2023-02-27T05:40:15.282Z,11.27
2023-02-27T05:40:50.065Z,9.88
2023-02-27T05:41:53.936Z,9.48
2023-02-27T05:42:33.712Z,10.40
2023-02-27T05:43:15.087Z,12.38
2023-02-27T05:43:48.861Z,9.75
2023-02-27T05:44:21.701Z,10.45
2023-02-27T05:44:59.385Z,12.20
2023-02-27T05:45:31.586Z,8.60
2023-02-27T05:46:08.669Z,9.68
2023-02-27T05:46:43.430Z,10.07
2023-02-27T05:47:16.871Z,10.48
2023-02-27T05:48:09.228Z,10.10
2023-02-27T05:48:47.495Z,8.00
2023-02-27T05:49:23.217Z,7.50
2023-02-27T05:50:07.516Z,7.45
2023-02-27T05:50:39.757Z,9.02
2023-02-27T05:51:13.505Z,8.30
2023-02-27T05:51:46.760Z,8.05
2023-02-27T05:52:19.979Z,8.93
2023-02-27T05:52:53.108Z,8.05
2023-02-27T05:53:26.823Z,9.35
2023-02-27T05:54:01.548Z,6.57
2023-02-27T05:54:41.650Z,8.13
2023-02-27T05:55:18.703Z,9.18
2023-02-27T05:55:52.446Z,6.90
2023-02-27T05:56:25.212Z,5.70
2023-02-27T05:56:58.342Z,6.45
2023-02-27T05:57:33.824Z,7.03
2023-02-27T05:58:05.156Z,6.80
2023-02-27T05:58:41.984Z,9.65
2023-02-27T05:59:25.596Z,8.57
2023-02-27T06:00:02.580Z,9.38
2023-02-27T06:00:36.916Z,6.88
2023-02-27T06:01:09.606Z,7.47
2023-02-27T06:01:41.097Z,8.52
2023-02-27T06:02:12.644Z,8.02
2023-02-27T06:02:44.872Z,9.02
2023-02-27T06:03:16.342Z,7.88
2023-02-27T06:03:47.801Z,6.57
2023-02-27T06:04:19.348Z,9.02
2023-02-27T06:04:50.732Z,8.48
2023-02-27T06:05:22.856Z,7.53
2023-02-27T06:05:55.328Z,9.82
2023-02-27T06:06:27.024Z,7.10
2023-02-27T06:06:58.935Z,7.22
2023-02-27T06:07:31.283Z,7.37
2023-02-27T06:08:02.613Z,6.15
2023-02-27T06:08:34.797Z,9.40
2023-02-27T06:09:06.183Z,8.82
2023-02-27T06:09:37.571Z,9.15
2023-02-27T06:10:11.232Z,8.27
2023-02-27T06:10:42.579Z,8.30
2023-02-27T06:11:14.084Z,8.97
2023-02-27T06:11:45.438Z,8.45
2023-02-27T06:12:16.827Z,8.68
2023-02-27T06:12:48.399Z,8.52
2023-02-27T06:13:19.742Z,8.90
2023-02-27T06:13:51.094Z,8.48
2023-02-27T06:14:22.483Z,10.38
2023-02-27T06:14:53.822Z,9.23
2023-02-27T06:15:25.264Z,8.88
2023-02-27T06:15:56.624Z,9.65
2023-02-27T06:16:28.274Z,10.02
2023-02-27T06:16:59.760Z,9.52
2023-02-27T06:17:31.115Z,9.32
2023-02-27T06:18:02.443Z,10.02
2023-02-27T06:18:33.777Z,10.35
2023-02-27T06:19:05.702Z,11.18
2023-02-27T06:19:37.025Z,11.07
2023-02-27T06:20:08.960Z,10.77
2023-02-27T06:20:40.842Z,10.37
2023-02-27T06:21:13.077Z,11.02
2023-02-27T06:21:44.763Z,9.10
2023-02-27T06:22:16.091Z,9.40
2023-02-27T06:22:47.441Z,9.20
2023-02-27T06:23:18.801Z,11.45
2023-02-27T06:23:50.076Z,9.40
2023-02-27T06:24:22.250Z,9.43
2023-02-27T06:24:53.605Z,10.68
2023-02-27T06:25:24.929Z,10.77
2023-02-27T06:25:56.266Z,10.80
2023-02-27T06:26:27.796Z,10.45
2023-02-27T06:26:59.467Z,11.07
2023-02-27T06:27:30.840Z,9.75
2023-02-27T06:28:02.167Z,10.07
2023-02-27T06:28:33.635Z,9.70
2023-02-27T06:29:05.004Z,9.95
2023-02-27T06:29:36.357Z,8.73
2023-02-27T06:30:07.962Z,11.05
2023-02-27T06:30:39.351Z,10.43
2023-02-27T06:31:10.731Z,9.57
2023-02-27T06:31:42.108Z,9.30
2023-02-27T06:32:13.513Z,9.32
2023-02-27T06:32:44.851Z,9.87
2023-02-27T06:33:16.204Z,12.13
2023-02-27T06:33:47.560Z,9.68
2023-02-27T06:34:19.002Z,10.60
2023-02-27T06:34:50.328Z,9.90
2023-02-27T06:35:21.797Z,10.48
2023-02-27T06:35:53.303Z,9.85
2023-02-27T06:36:24.784Z,8.85
2023-02-27T06:36:56.165Z,10.13
2023-02-27T06:37:27.517Z,9.40
2023-02-27T06:37:58.943Z,9.68
2023-02-27T06:38:30.293Z,12.18
2023-02-27T06:39:01.626Z,11.15
2023-02-27T06:39:32.956Z,11.83
2023-02-27T06:40:04.848Z,10.98
2023-02-27T06:40:36.181Z,10.82
2023-02-27T06:41:07.541Z,10.68
2023-02-27T06:41:38.918Z,10.17
2023-02-27T06:42:10.269Z,10.88
2023-02-27T06:42:42.191Z,10.23
2023-02-27T06:43:13.547Z,10.75
2023-02-27T06:43:44.878Z,11.50
2023-02-27T06:44:17.954Z,9.68
2023-02-27T06:44:50.588Z,11.45
2023-02-27T06:45:21.910Z,9.75
2023-02-27T06:45:53.830Z,10.68
2023-02-27T06:46:25.450Z,12.00
2023-02-27T06:46:57.028Z,12.23
2023-02-27T06:47:28.349Z,9.98
2023-02-27T06:47:59.708Z,10.25
2023-02-27T06:48:31.090Z,12.93
2023-02-27T06:49:02.523Z,9.60
2023-02-27T06:49:33.856Z,11.82
2023-02-27T06:50:05.684Z,11.13
2023-02-27T06:50:37.042Z,11.83
2023-02-27T06:51:08.390Z,11.15
2023-02-27T06:51:39.716Z,11.27
2023-02-27T06:52:11.037Z,11.70
2023-02-27T06:52:42.398Z,10.90
2023-02-27T06:53:13.762Z,12.23
2023-02-27T06:53:45.112Z,12.70
2023-02-27T06:54:16.451Z,10.93
2023-02-27T06:54:47.778Z,11.90
2023-02-27T06:55:19.174Z,12.70
2023-02-27T06:55:50.536Z,12.48
2023-02-27T06:56:21.899Z,10.77
2023-02-27T06:56:53.248Z,12.70
2023-02-27T06:57:24.795Z,10.82
2023-02-27T06:57:56.180Z,12.13
2023-02-27T06:58:27.568Z,10.82
2023-02-27T06:58:59.610Z,11.07
2023-02-27T06:59:31.055Z,12.43
2023-02-27T07:00:02.574Z,10.32
2023-02-27T07:00:33.906Z,12.88
2023-02-27T07:01:05.339Z,11.15
2023-02-27T07:01:36.722Z,11.57
2023-02-27T07:02:08.125Z,12.23
2023-02-27T07:02:39.554Z,11.73
2023-02-27T07:03:12.118Z,9.55
2023-02-27T07:03:43.500Z,11.98
2023-02-27T07:04:15.117Z,9.57
2023-02-27T07:04:46.587Z,11.10
2023-02-27T07:05:17.969Z,10.35
2023-02-27T07:05:49.677Z,10.38
2023-02-27T07:06:21.055Z,11.90
2023-02-27T07:07:35.760Z,8.13
2023-02-27T07:08:03.973Z,7.53
2023-02-27T07:08:35.300Z,8.70
2023-02-27T07:09:07.241Z,7.80
2023-02-27T07:09:38.657Z,8.68
2023-02-27T07:10:11.866Z,7.87
2023-02-27T07:10:44.008Z,10.32
2023-02-27T07:11:15.379Z,9.80
2023-02-27T07:11:46.748Z,8.52
2023-02-27T07:12:18.097Z,8.45
2023-02-27T07:12:49.439Z,12.15
2023-02-27T07:13:20.846Z,9.32
2023-02-27T07:13:52.203Z,9.43
2023-02-27T07:14:23.539Z,10.50
2023-02-27T07:14:54.863Z,10.50
2023-02-27T07:15:26.197Z,11.18
2023-02-27T07:15:57.569Z,10.98
2023-02-27T07:16:29.180Z,10.85
2023-02-27T07:17:00.669Z,11.18
2023-02-27T07:17:32.118Z,8.23
2023-02-27T07:18:03.510Z,9.27
2023-02-27T07:18:34.836Z,12.00
2023-02-27T07:19:08.446Z,9.77
2023-02-27T07:19:40.055Z,8.75
2023-02-27T07:20:11.818Z,8.73
2023-02-27T07:20:43.144Z,10.05
2023-02-27T07:21:14.582Z,9.65
2023-02-27T07:21:45.916Z,10.43
2023-02-27T07:22:17.270Z,8.48
2023-02-27T07:22:48.623Z,10.35
2023-02-27T07:23:19.954Z,8.47
2023-02-27T07:23:52.209Z,10.02
2023-02-27T07:24:23.808Z,9.38
2023-02-27T07:24:55.148Z,9.35
2023-02-27T07:25:26.463Z,7.13
2023-02-27T07:25:57.861Z,9.38
2023-02-27T07:26:29.535Z,8.95
2023-02-27T07:27:01.167Z,8.98
2023-02-27T07:27:32.485Z,10.85
2023-02-27T07:28:04.034Z,11.32
2023-02-27T07:28:35.458Z,9.37
2023-02-27T07:29:06.934Z,9.32
2023-02-27T07:29:38.293Z,6.50
2023-02-27T07:30:10.005Z,6.82
2023-02-27T07:30:41.486Z,7.17
2023-02-27T07:31:12.860Z,6.38
2023-02-27T07:31:44.426Z,8.20
2023-02-27T07:32:15.905Z,5.55
2023-02-27T07:32:47.290Z,7.63
2023-02-27T07:33:18.636Z,6.45
2023-02-27T07:33:49.975Z,6.55
2023-02-27T07:34:21.376Z,6.10
2023-02-27T07:34:52.885Z,8.10
2023-02-27T07:35:24.344Z,6.75
2023-02-27T07:35:55.756Z,6.65
2023-02-27T07:36:27.440Z,5.72
2023-02-27T07:36:58.930Z,7.63
2023-02-27T07:37:30.279Z,6.82
2023-02-27T07:38:01.608Z,7.20
2023-02-27T07:38:32.958Z,7.38
2023-02-27T07:39:04.824Z,6.18